Flight Track Log - Related Links

Times and Time Zones

All times are in EDT time to prevent confusion due to time zone crossing. See the CDG4879 flight status page for this flight to view local times or setup timezone preferences in your user account.

Time Position Orientation Groundspeed Altitude Reporting Facility
EDT Latitude Longitude Course Direction KTS MPH feet Rate Location/Type
Mon 10:06:00 PM 28.1284 117.4766 313° West  Level Estimated
Mon 10:07:00 PM 28.1816 117.4107 312° West  Level Estimated
Mon 10:08:00 PM 28.2347 117.3448 312° West  Level Estimated
Mon 10:09:00 PM 28.2878 117.2788 312° West  Level Estimated
Mon 10:10:00 PM 28.3409 117.2127 312° West  Level Estimated
Mon 10:11:00 PM 28.3940 117.1465 312° West  Level Estimated
Mon 10:12:00 PM 28.4470 117.0803 312° West  Level Estimated
Mon 10:13:00 PM 28.5000 117.0140 312° West  Level Estimated
Mon 10:14:00 PM 28.5529 116.9477 312° West  Level Estimated
Mon 10:15:00 PM 28.6058 116.8813 312° West  Level Estimated
Mon 10:16:00 PM 28.6587 116.8148 312° West  Level Estimated
Mon 10:17:00 PM 28.7115 116.7482 312° West  Level Estimated
Mon 10:18:00 PM 28.7644 116.6816 312° West  Level Estimated
Mon 10:19:00 PM 28.8171 116.6149 312° West  Level Estimated
Mon 10:20:00 PM 28.8699 116.5482 312° West  Level Estimated
Mon 10:21:00 PM 28.9226 116.4814 312° West  Level Estimated
Mon 10:22:00 PM 28.9753 116.4145 312° West  Level Estimated
Mon 10:23:00 PM 29.0280 116.3475 312° West  Level Estimated
Mon 10:24:00 PM 29.0806 116.2805 312° West  Level Estimated
Mon 10:25:00 PM 29.1332 116.2134 312° West  Level Estimated
Mon 10:26:00 PM 29.1857 116.1462 312° West  Level Estimated
Mon 10:27:00 PM 29.2382 116.0790 312° West  Level Estimated
Mon 10:28:00 PM 29.2907 116.0117 312° West  Level Estimated
Mon 10:29:00 PM 29.3432 115.9443 312° West  Level Estimated
Mon 10:30:00 PM 29.3956 115.8769 312° West  Level Estimated
Mon 10:31:00 PM 29.4480 115.8094 312° West  Level Estimated
Mon 10:32:00 PM 29.5003 115.7418 312° West  Level Estimated
Mon 10:33:00 PM 29.5526 115.6741 312° West  Level Estimated
Mon 10:34:00 PM 29.6049 115.6064 312° West  Level Estimated
Mon 10:35:00 PM 29.6572 115.5386 312° West  Level Estimated
Mon 10:36:00 PM 29.7094 115.4708 312° West  Level Estimated
Mon 10:37:00 PM 29.7616 115.4028 312° West  Level Estimated
Mon 10:38:00 PM 29.8137 115.3348 311° West  Level Estimated
Mon 10:39:00 PM 29.8658 115.2668 311° West  Level Estimated
Mon 10:40:00 PM 29.9179 115.1986 311° West  Level Estimated
Mon 10:41:00 PM 29.9699 115.1304 311° West  Level Estimated
Mon 10:42:00 PM 30.0219 115.0621 311° West  Level Estimated
Mon 10:43:00 PM 30.0739 114.9938 311° West  Level Estimated
Mon 10:44:00 PM 30.1258 114.9254 311° West  Level Estimated
Mon 10:45:00 PM 30.1777 114.8569 311° West  Level Estimated
Mon 10:46:00 PM 30.2296 114.7883 311° West  Level Estimated
Mon 10:47:00 PM 30.2814 114.7197 311° West  Level Estimated
Mon 10:48:00 PM 30.3332 114.6509 311° West  Level Estimated
Mon 10:49:00 PM 30.3849 114.5821 311° West  Level Estimated
Mon 10:50:00 PM 30.4367 114.5133 311° West  Level Estimated
Mon 10:51:00 PM 30.4883 114.4443 311° West  Level Estimated
Mon 10:52:00 PM 30.5400 114.3753 311° West  Level Estimated
Mon 10:53:00 PM 30.5916 114.3063 311° West  Level Estimated
Mon 10:54:00 PM 30.6432 114.2371 311° West  Level Estimated
Mon 10:55:00 PM 30.6947 114.1679 311° West  Level Estimated
Mon 10:56:00 PM 30.7462 114.0986 311° West  Level Estimated
Mon 10:57:00 PM 30.7977 114.0292 311° West  Level Estimated
Mon 10:58:00 PM 30.8491 113.9597 311° West  Level Estimated
Mon 10:59:00 PM 30.9005 113.8902 311° West  Level Estimated
Mon 11:00:00 PM 30.9518 113.8206 311° West  Level Estimated
Mon 11:01:00 PM 31.0031 113.7509 311° West  Level Estimated
Mon 11:02:00 PM 31.0544 113.6812 311° West  Level Estimated
Mon 11:03:00 PM 31.1056 113.6113 311° West  Level Estimated
Mon 11:04:00 PM 31.1569 113.5414 311° West  Level Estimated
Mon 11:05:00 PM 31.2080 113.4715 311° West  Level Estimated
Mon 11:06:00 PM 31.2591 113.4014 310° West  Level Estimated
Mon 11:07:00 PM 31.3102 113.3313 310° West  Level Estimated
Mon 11:08:00 PM 31.3613 113.2611 310° West  Level Estimated
Mon 11:09:00 PM 31.4123 113.1908 310° West  Level Estimated
Mon 11:10:00 PM 31.4632 113.1204 310° West  Level Estimated
Mon 11:11:00 PM 31.5142 113.0500 310° West  Level Estimated
Mon 11:12:00 PM 31.5651 112.9795 310° West  Level Estimated
Mon 11:13:00 PM 31.6159 112.9089 310° West  Level Estimated
Mon 11:14:00 PM 31.6667 112.8382 310° West  Level Estimated
Mon 11:15:00 PM 31.7175 112.7675 310° West  Level Estimated
Mon 11:16:00 PM 31.7683 112.6967 310° West  Level Estimated
Mon 11:17:00 PM 31.8190 112.6258 310° West  Level Estimated
Mon 11:18:00 PM 31.8696 112.5548 310° West  Level Estimated
Mon 11:19:00 PM 31.9202 112.4837 310° West  Level Estimated
Mon 11:20:00 PM 31.9708 112.4126 310° West  Level Estimated
Mon 11:21:00 PM 32.0214 112.3414 310° West  Level Estimated
Mon 11:22:00 PM 32.0719 112.2701 310° West  Level Estimated
Mon 11:23:00 PM 32.1223 112.1988 310° West  Level Estimated
Mon 11:24:00 PM 32.1727 112.1273 310° West  Level Estimated
Mon 11:25:00 PM 32.2231 112.0558 310° West  Level Estimated
Mon 11:26:00 PM 32.2735 111.9842 310° West  Level Estimated
Mon 11:27:00 PM 32.3238 111.9125 310° West  Level Estimated
Mon 11:28:00 PM 32.3740 111.8407 310° West  Level Estimated
Mon 11:29:00 PM 32.4243 111.7689 310° West  Level Estimated
Mon 11:30:00 PM 32.4744 111.6970 310° West  Level Estimated
Mon 11:31:00 PM 32.5246 111.6250 310° West  Level Estimated
Mon 11:32:00 PM 32.5747 111.5529 310° West  Level Estimated
Mon 11:33:00 PM 32.6247 111.4807 309° West  Level Estimated
Mon 11:34:00 PM 32.6747 111.4085 309° West  Level Estimated
Mon 11:35:00 PM 32.7247 111.3361 309° West  Level Estimated
Mon 11:36:00 PM 32.7746 111.2637 309° West  Level Estimated
Mon 11:37:00 PM 32.8245 111.1912 309° West  Level Estimated
Mon 11:38:00 PM 32.8744 111.1187 309° West  Level Estimated
Mon 11:39:00 PM 32.9242 111.0460 309° West  Level Estimated
Mon 11:40:00 PM 32.9739 110.9733 309° West  Level Estimated
Mon 11:41:00 PM 33.0237 110.9005 309° West  Level Estimated
Mon 11:42:00 PM 33.0733 110.8276 309° West  Level Estimated
Mon 11:43:00 PM 33.1230 110.7546 309° West  Level Estimated
Mon 11:44:00 PM 33.1726 110.6815 309° West  Level Estimated
Mon 11:45:00 PM 33.2221 110.6084 309° West  Level Estimated
Mon 11:46:00 PM 33.2716 110.5351 309° West  Level Estimated
Mon 11:47:00 PM 33.3211 110.4618 309° West  Level Estimated
Mon 11:48:00 PM 33.3705 110.3885 309° West  Level Estimated
Mon 11:49:00 PM 33.4199 110.3150 309° West  Level Estimated
Mon 11:50:00 PM 33.4692 110.2414 309° West  Level Estimated
Mon 11:51:00 PM 33.5185 110.1678 309° West  Level Estimated
Mon 11:52:00 PM 33.5678 110.0940 309° West  Level Estimated
Mon 11:53:00 PM 33.6170 110.0202 309° West  Level Estimated
Mon 11:54:00 PM 33.6661 109.9463 309° West  Level Estimated
Mon 11:55:00 PM 33.7153 109.8723 309° West  Level Estimated
Mon 11:56:00 PM 33.7643 109.7983 309° West  Level Estimated
Mon 11:57:00 PM 33.8134 109.7241 309° West  Level Estimated
Mon 11:58:00 PM 33.8623 109.6499 308° West  Level Estimated
Mon 11:59:00 PM 33.9113 109.5756 308° West  Level Estimated
Tue 12:00:00 AM 33.9602 109.5012 308° West  Level Estimated
Tue 12:01:00 AM 34.0090 109.4267 308° West  Level Estimated
Tue 12:02:00 AM 34.0578 109.3521 308° West  Level Estimated
Tue 12:03:00 AM 34.1066 109.2774 308° West  Level Estimated
Tue 12:04:00 AM 34.1553 109.2027 308° West  Level Estimated
Tue 12:05:00 AM 34.2040 109.1278 308° West  Level Estimated
Tue 12:06:00 AM 34.2526 109.0529 308° West  Level Estimated
Tue 12:07:00 AM 34.3012 108.9779 308° West  Level Estimated
Tue 12:08:00 AM 34.3497 108.9028 308° West  Level Estimated
Tue 12:09:00 AM 34.3982 108.8276 308° West  Level Estimated
Tue 12:10:00 AM 34.4466 108.7523 308° West  Level Estimated

Login

Don't have an account? Register now (free) for customized features, flight alerts, and more!